Time;durP1;ratioP1;P1;durP2;ratioP2;P2;SDS_P1;SDS_P2;PMS_P1;PMS_P2;Temp;Humidity;BMP_temperature;BMP_pressure;BME280_temperature;BME280_humidity;BME280_pressure;Samples;Min_cycle;Max_cycle;Signal;HPM_P1;HPM_P2
2021/11/16 00:02:22;;;;;;;49.35;24.60;;;6.30;99.90;;;;;;5036168;28;20049;-90
2021/11/16 00:04:50;;;;;;;54.88;25.98;;;6.20;99.90;;;;;;5038253;28;20033;-91
2021/11/16 00:07:18;;;;;;;51.63;25.52;;;6.30;99.90;;;;;;5036669;28;20163;-90
2021/11/16 00:09:44;;;;;;;49.10;24.70;;;6.20;99.90;;;;;;5028233;28;20040;-91
2021/11/16 00:12:09;;;;;;;52.42;25.60;;;6.20;99.90;;;;;;5038802;28;20061;-90
2021/11/16 00:14:35;;;;;;;53.40;26.05;;;6.20;99.90;;;;;;5038147;28;20171;-91
2021/11/16 00:17:01;;;;;;;57.28;25.65;;;6.20;99.90;;;;;;5034035;28;20034;-91
2021/11/16 00:19:27;;;;;;;52.35;25.27;;;6.20;99.90;;;;;;5039351;28;20029;-91
2021/11/16 00:21:56;;;;;;;56.65;25.98;;;6.20;99.90;;;;;;5034239;28;20029;-90
2021/11/16 00:24:32;;;;;;;55.38;24.95;;;6.20;99.90;;;;;;5038831;28;20028;-91
2021/11/16 00:26:58;;;;;;;54.45;24.23;;;6.20;99.90;;;;;;5036124;28;20466;-91
2021/11/16 00:29:23;;;;;;;56.45;26.10;;;6.20;99.90;;;;;;5029536;28;20124;-91
2021/11/16 00:31:49;;;;;;;50.85;26.02;;;6.20;99.90;;;;;;5038203;28;20029;-91
2021/11/16 00:34:14;;;;;;;52.72;25.10;;;6.20;99.90;;;;;;5028445;28;20033;-91
2021/11/16 00:36:40;;;;;;;54.15;25.85;;;6.20;99.90;;;;;;5035521;28;20021;-91
2021/11/16 00:39:05;;;;;;;58.55;26.58;;;6.20;99.90;;;;;;5029431;28;20034;-91
2021/11/16 00:41:31;;;;;;;57.13;26.75;;;6.30;99.90;;;;;;5053602;28;20040;-91
2021/11/16 00:43:57;;;;;;;56.10;25.48;;;6.30;99.90;;;;;;5059314;28;20021;-91
2021/11/16 00:46:23;;;;;;;59.03;27.15;;;6.30;99.90;;;;;;5052655;28;20496;-91
2021/11/16 00:48:48;;;;;;;57.30;27.60;;;6.30;99.90;;;;;;5025543;28;20025;-92
2021/11/16 00:51:14;;;;;;;55.47;26.35;;;6.30;99.90;;;;;;5035778;28;20386;-90
2021/11/16 00:53:41;;;;;;;58.30;27.60;;;6.30;99.90;;;;;;5023963;28;20018;-89
2021/11/16 00:56:08;;;;;;;54.25;26.08;;;6.20;99.90;;;;;;5038197;28;20576;-91
2021/11/16 00:58:34;;;;;;;53.60;25.67;;;6.30;99.90;;;;;;5038354;28;20029;-92
2021/11/16 01:01:00;;;;;;;56.70;27.77;;;6.20;99.90;;;;;;5029856;28;20049;-91
2021/11/16 01:03:27;;;;;;;60.50;28.05;;;6.20;99.90;;;;;;5037779;28;20484;-91
2021/11/16 01:05:54;;;;;;;58.58;27.35;;;6.20;99.90;;;;;;5038489;28;20029;-90
2021/11/16 01:08:20;;;;;;;55.72;27.00;;;6.20;99.90;;;;;;5030115;28;20393;-90
2021/11/16 01:10:47;;;;;;;60.80;28.23;;;6.30;99.90;;;;;;5043519;28;20029;-91
2021/11/16 01:13:15;;;;;;;61.05;27.77;;;6.30;99.90;;;;;;5036681;28;20123;-90
2021/11/16 01:15:43;;;;;;;57.88;28.13;;;6.30;99.90;;;;;;5030870;28;20073;-91
2021/11/16 01:18:09;;;;;;;59.17;26.48;;;6.30;99.90;;;;;;5034759;28;20321;-91
2021/11/16 01:20:36;;;;;;;56.65;25.98;;;6.20;99.90;;;;;;5033049;28;20033;-90
2021/11/16 01:23:04;;;;;;;58.88;26.60;;;6.30;99.90;;;;;;5028231;28;20006;-91
2021/11/16 01:25:34;;;;;;;57.25;27.15;;;6.30;99.90;;;;;;5025549;28;20029;-89
2021/11/16 01:28:06;;;;;;;58.67;28.17;;;6.20;99.90;;;;;;5034244;28;20108;-90
2021/11/16 01:30:32;;;;;;;59.40;27.52;;;6.20;99.90;;;;;;5034868;28;20059;-90
2021/11/16 01:33:04;;;;;;;56.97;28.08;;;6.20;99.90;;;;;;5031816;28;20529;-90
2021/11/16 01:35:32;;;;;;;56.72;25.83;;;6.20;99.90;;;;;;5029977;28;20052;-90
2021/11/16 01:37:58;;;;;;;57.60;26.65;;;6.20;99.90;;;;;;5032348;28;20463;-91
2021/11/16 01:40:24;;;;;;;56.80;27.60;;;6.20;99.90;;;;;;5033375;28;20029;-90
2021/11/16 01:42:51;;;;;;;58.10;27.25;;;6.20;99.90;;;;;;5034801;28;20030;-90
2021/11/16 01:45:18;;;;;;;62.78;27.92;;;6.20;99.90;;;;;;5027189;28;20045;-89
2021/11/16 01:47:45;;;;;;;55.05;26.83;;;6.20;99.90;;;;;;5030444;28;20033;-91
2021/11/16 01:50:12;;;;;;;59.67;28.35;;;6.20;99.90;;;;;;5035423;28;20049;-91
2021/11/16 01:52:38;;;;;;;58.45;27.10;;;6.30;99.90;;;;;;5029861;28;20083;-91
2021/11/16 01:55:07;;;;;;;60.45;29.30;;;6.30;99.90;;;;;;5032421;28;20059;-90
2021/11/16 01:57:33;;;;;;;55.85;27.73;;;6.30;99.90;;;;;;5034228;28;20033;-91
2021/11/16 01:59:59;;;;;;;57.97;27.70;;;6.20;99.90;;;;;;5021041;28;20112;-91
2021/11/16 02:02:25;;;;;;;56.72;27.65;;;6.30;99.90;;;;;;5027156;28;20061;-90
2021/11/16 02:04:50;;;;;;;62.45;28.98;;;6.30;99.90;;;;;;5017801;28;20121;-91
2021/11/16 02:07:16;;;;;;;68.07;29.20;;;6.30;99.90;;;;;;5030893;28;20466;-91
2021/11/16 02:09:43;;;;;;;66.50;30.10;;;6.30;99.90;;;;;;5022461;28;20029;-91
2021/11/16 02:12:09;;;;;;;61.95;29.90;;;6.30;99.90;;;;;;5032832;28;20033;-92
2021/11/16 02:14:35;;;;;;;66.60;29.23;;;6.30;99.90;;;;;;5026597;28;20032;-92
2021/11/16 02:17:01;;;;;;;64.13;29.85;;;6.30;99.90;;;;;;5033947;28;20474;-91
2021/11/16 02:19:27;;;;;;;62.55;29.88;;;6.30;99.90;;;;;;5034637;28;20029;-91
2021/11/16 02:21:53;;;;;;;60.47;29.27;;;6.30;99.90;;;;;;5033400;28;20507;-90
2021/11/16 02:24:19;;;;;;;65.28;28.23;;;6.30;99.90;;;;;;5044855;28;20059;-90
2021/11/16 02:26:45;;;;;;;59.30;28.88;;;6.30;99.90;;;;;;5030210;28;20026;-90
2021/11/16 02:29:11;;;;;;;61.20;27.83;;;6.30;99.90;;;;;;5028847;28;20382;-92
2021/11/16 02:31:37;;;;;;;60.47;29.67;;;6.30;99.90;;;;;;5049583;28;20481;-90
2021/11/16 02:34:05;;;;;;;64.38;28.27;;;6.30;99.90;;;;;;5033002;28;20029;-90
2021/11/16 02:36:32;;;;;;;62.72;29.52;;;6.40;99.90;;;;;;5033792;28;20113;-91
2021/11/16 02:38:59;;;;;;;68.00;29.55;;;6.40;99.90;;;;;;5019427;28;20029;-91
2021/11/16 02:41:31;;;;;;;72.28;30.55;;;6.30;99.90;;;;;;5020096;28;20033;-91
2021/11/16 02:43:59;;;;;;;64.78;31.48;;;6.30;99.90;;;;;;5032612;28;20505;-91
2021/11/16 02:46:27;;;;;;;56.33;28.23;;;6.30;99.90;;;;;;5023260;28;20033;-91
2021/11/16 02:48:52;;;;;;;57.92;29.00;;;6.30;99.90;;;;;;5033111;28;20215;-90
2021/11/16 02:51:18;;;;;;;60.85;28.92;;;6.30;99.90;;;;;;5032007;28;20123;-90
2021/11/16 02:53:44;;;;;;;61.13;28.38;;;6.30;99.90;;;;;;5031972;28;20040;-90
2021/11/16 02:56:10;;;;;;;57.15;28.27;;;6.20;99.90;;;;;;5035081;28;20030;-91
2021/11/16 02:58:36;;;;;;;63.53;29.73;;;6.30;99.90;;;;;;5033383;28;20017;-91
2021/11/16 03:01:14;;;;;;;65.97;29.92;;;6.30;99.90;;;;;;5032510;28;20048;-91
2021/11/16 03:03:41;;;;;;;58.60;28.27;;;6.30;99.90;;;;;;5028921;28;20053;-91
2021/11/16 03:06:08;;;;;;;63.88;30.25;;;6.30;99.90;;;;;;5021082;28;20053;-91
2021/11/16 03:08:35;;;;;;;62.35;28.73;;;6.30;99.90;;;;;;5019177;28;20032;-91
2021/11/16 03:11:06;;;;;;;59.95;28.60;;;6.30;99.90;;;;;;5032115;28;20064;-91
2021/11/16 03:13:36;;;;;;;61.08;29.38;;;6.30;99.90;;;;;;5036797;28;20108;-91
2021/11/16 03:16:04;;;;;;;66.25;29.30;;;6.30;99.90;;;;;;5029240;28;20080;-91
2021/11/16 03:18:29;;;;;;;57.85;28.35;;;6.30;99.90;;;;;;5018900;28;20474;-90
2021/11/16 03:20:55;;;;;;;63.40;28.60;;;6.30;99.90;;;;;;5033363;28;20095;-90
2021/11/16 03:23:25;;;;;;;62.47;28.42;;;6.30;99.90;;;;;;5025914;28;20389;-90
2021/11/16 03:25:58;;;;;;;61.83;30.40;;;6.30;99.90;;;;;;5029341;28;20025;-91
2021/11/16 03:28:29;;;;;;;62.10;29.08;;;6.30;99.90;;;;;;5033173;28;20061;-90
2021/11/16 03:30:59;;;;;;;59.50;28.15;;;6.30;99.90;;;;;;5029421;28;20042;-91
2021/11/16 03:33:25;;;;;;;57.63;27.58;;;6.30;99.90;;;;;;5032347;28;20036;-91
2021/11/16 03:35:52;;;;;;;61.53;28.27;;;6.30;99.90;;;;;;5028069;28;20036;-91
2021/11/16 03:38:19;;;;;;;59.92;28.05;;;6.30;99.90;;;;;;5014806;28;20129;-91
2021/11/16 03:40:46;;;;;;;63.10;29.75;;;6.30;99.90;;;;;;5032546;28;20029;-91
2021/11/16 03:43:14;;;;;;;64.57;30.17;;;6.30;99.90;;;;;;5032240;28;20032;-91
2021/11/16 03:45:40;;;;;;;62.70;28.88;;;6.30;99.90;;;;;;5032074;28;20052;-92
2021/11/16 03:48:07;;;;;;;64.93;29.73;;;6.30;99.90;;;;;;5029770;28;20122;-92
2021/11/16 03:50:33;;;;;;;63.28;28.77;;;6.30;99.90;;;;;;5032766;28;20037;-92
2021/11/16 03:52:59;;;;;;;61.05;29.35;;;6.30;99.90;;;;;;5032946;28;20032;-92
2021/11/16 03:55:32;;;;;;;61.05;27.63;;;6.30;99.90;;;;;;5029197;28;20029;-91
2021/11/16 03:57:59;;;;;;;;;;;6.30;99.90;;;;;;5013935;28;20026;-92
2021/11/16 04:00:45;;;;;;;66.15;28.80;;;6.30;99.90;;;;;;5025074;28;19921;-92
2021/11/16 04:03:11;;;;;;;63.85;28.73;;;6.20;99.90;;;;;;5026174;28;20029;-92
2021/11/16 04:05:37;;;;;;;63.75;30.67;;;6.30;99.90;;;;;;5031729;28;20474;-92
2021/11/16 04:08:04;;;;;;;66.07;29.83;;;6.30;99.90;;;;;;5032787;28;20083;-92
2021/11/16 04:10:29;;;;;;;59.53;27.85;;;6.30;99.90;;;;;;5029954;28;20116;-92
2021/11/16 04:12:55;;;;;;;57.22;28.75;;;6.20;99.90;;;;;;5031660;28;20056;-92
2021/11/16 04:15:23;;;;;;;64.43;30.00;;;6.30;99.90;;;;;;5028817;28;20096;-91
2021/11/16 04:17:51;;;;;;;64.10;29.20;;;6.20;99.90;;;;;;5032285;28;20034;-92
2021/11/16 04:20:21;;;;;;;66.63;28.52;;;6.20;99.90;;;;;;5034886;28;20034;-92
2021/11/16 04:22:47;;;;;;;60.72;28.02;;;6.30;99.90;;;;;;5032333;28;20033;-92
2021/11/16 04:25:13;;;;;;;65.10;31.00;;;6.30;99.90;;;;;;5029040;28;20026;-92
2021/11/16 04:27:40;;;;;;;61.42;30.08;;;6.30;99.90;;;;;;5031478;28;20030;-93
2021/11/16 04:30:08;;;;;;;59.80;28.70;;;6.30;99.90;;;;;;5031140;28;20029;-92
2021/11/16 04:32:34;;;;;;;61.70;28.48;;;6.20;99.90;;;;;;5031677;28;20037;-92
2021/11/16 04:35:00;;;;;;;61.72;28.27;;;6.30;99.90;;;;;;5032260;28;20028;-92
2021/11/16 04:37:26;;;;;;;60.75;28.05;;;6.30;99.90;;;;;;5016229;28;20085;-91
2021/11/16 04:39:52;;;;;;;67.00;29.98;;;6.20;99.90;;;;;;5014175;28;20030;-91
2021/11/16 04:42:18;;;;;;;61.22;28.88;;;6.30;99.90;;;;;;5029182;28;20029;-91
2021/11/16 04:44:45;;;;;;;62.38;28.80;;;6.30;99.90;;;;;;5033788;28;20028;-91
2021/11/16 04:47:13;;;;;;;64.05;30.45;;;6.30;99.90;;;;;;5034067;28;20068;-91
2021/11/16 04:49:43;;;;;;;66.47;30.98;;;6.30;99.90;;;;;;5026393;28;20038;-92
2021/11/16 04:52:23;;;;;;;66.25;29.80;;;6.30;99.90;;;;;;5032876;28;20028;-91
2021/11/16 05:02:54;;;;;;;68.82;31.30;;;6.40;99.90;;;;;;5059701;28;20389;-91
2021/11/16 05:05:22;;;;;;;62.40;30.02;;;6.30;99.90;;;;;;5032956;28;20124;-90
2021/11/16 05:07:58;;;;;;;62.85;29.65;;;6.30;99.90;;;;;;5031706;28;20391;-91
2021/11/16 05:10:25;;;;;;;62.25;29.65;;;6.30;99.90;;;;;;5037766;28;20040;-91
2021/11/16 05:12:51;;;;;;;66.72;30.67;;;6.30;99.90;;;;;;5036051;28;20112;-90
2021/11/16 05:15:19;;;;;;;66.18;30.10;;;6.30;99.90;;;;;;5027369;28;20017;-91
2021/11/16 05:17:47;;;;;;;71.43;32.47;;;6.30;99.90;;;;;;5034865;28;20035;-91
2021/11/16 05:20:13;;;;;;;67.95;30.55;;;6.30;99.90;;;;;;5018742;28;20379;-90
2021/11/16 05:22:44;;;;;;;70.93;33.05;;;6.30;99.90;;;;;;5035656;28;20032;-91
2021/11/16 05:25:10;;;;;;;70.38;31.88;;;6.30;99.90;;;;;;5025532;28;20025;-91
2021/11/16 05:27:37;;;;;;;72.60;32.33;;;6.30;99.90;;;;;;5034596;28;20036;-91
2021/11/16 05:30:08;;;;;;;68.38;31.83;;;6.30;99.90;;;;;;5036260;28;20028;-91
2021/11/16 05:32:35;;;;;;;69.20;31.90;;;6.30;99.90;;;;;;5039994;28;20029;-91
2021/11/16 05:35:01;;;;;;;71.05;31.88;;;6.30;99.90;;;;;;5034336;28;20030;-89
2021/11/16 05:37:27;;;;;;;65.38;30.08;;;6.30;99.90;;;;;;5034490;28;20036;-90
2021/11/16 05:39:53;;;;;;;70.90;31.00;;;6.20;99.90;;;;;;5036296;28;20033;-90
2021/11/16 05:42:21;;;;;;;64.10;30.10;;;6.20;99.90;;;;;;5035584;28;20082;-90
2021/11/16 05:44:48;;;;;;;68.78;31.33;;;6.20;99.90;;;;;;5036583;28;20063;-90
2021/11/16 05:47:14;;;;;;;69.90;31.42;;;6.20;99.90;;;;;;5033654;28;20017;-90
2021/11/16 05:49:39;;;;;;;70.13;30.27;;;6.20;99.90;;;;;;5031679;28;20048;-90
2021/11/16 05:52:05;;;;;;;69.60;30.83;;;6.20;99.90;;;;;;5037712;28;20009;-89
2021/11/16 05:54:33;;;;;;;70.10;30.13;;;6.20;99.90;;;;;;5037907;28;20025;-89
2021/11/16 05:57:00;;;;;;;67.72;31.08;;;6.20;99.90;;;;;;5036294;28;20538;-91
2021/11/16 05:59:32;;;;;;;69.55;29.92;;;6.20;99.90;;;;;;5030616;28;20041;-90
2021/11/16 06:01:58;;;;;;;71.88;31.13;;;6.20;99.90;;;;;;5025785;28;20488;-89
2021/11/16 06:04:25;;;;;;;73.68;32.35;;;6.30;99.90;;;;;;5035029;28;20044;-91
2021/11/16 06:06:52;;;;;;;69.60;31.17;;;6.20;99.90;;;;;;5030605;28;20049;-90
2021/11/16 06:09:18;;;;;;;72.20;30.02;;;6.30;99.90;;;;;;5040207;28;20057;-90
2021/11/16 06:11:43;;;;;;;69.90;31.25;;;6.30;99.90;;;;;;5037257;28;20063;-90
2021/11/16 06:14:09;;;;;;;73.40;31.30;;;6.20;99.90;;;;;;5034303;28;20105;-90
2021/11/16 06:16:35;;;;;;;71.03;31.40;;;6.20;99.90;;;;;;5037161;28;20059;-90
2021/11/16 06:19:05;;;;;;;66.22;30.48;;;6.20;99.90;;;;;;5035962;28;20457;-91
2021/11/16 06:21:30;;;;;;;74.07;31.33;;;6.20;99.90;;;;;;5032786;28;20020;-91
2021/11/16 06:23:59;;;;;;;67.40;29.98;;;6.20;99.90;;;;;;5030509;28;20032;-90
2021/11/16 06:26:27;;;;;;;68.95;29.38;;;6.20;99.90;;;;;;5047717;28;20052;-90
2021/11/16 06:28:54;;;;;;;69.55;30.25;;;6.10;99.90;;;;;;5036509;28;20039;-91
2021/11/16 06:31:26;;;;;;;69.18;30.88;;;6.10;99.90;;;;;;5031579;28;20408;-90
2021/11/16 06:33:52;;;;;;;75.03;30.50;;;6.10;99.90;;;;;;5034383;28;20033;-90
2021/11/16 06:36:17;;;;;;;74.07;30.63;;;6.10;99.90;;;;;;5036755;28;20037;-91
2021/11/16 06:38:43;;;;;;;69.40;29.02;;;6.10;99.90;;;;;;5044797;28;20021;-91
2021/11/16 06:41:09;;;;;;;73.10;31.15;;;6.10;99.90;;;;;;5034083;28;20032;-92
2021/11/16 06:43:35;;;;;;;77.97;31.63;;;6.00;99.90;;;;;;5030689;28;20029;-92
2021/11/16 06:46:02;;;;;;;75.22;31.08;;;6.00;99.90;;;;;;5035863;28;20056;-90
2021/11/16 06:48:29;;;;;;;69.22;30.67;;;6.00;99.90;;;;;;5039308;28;20031;-92
2021/11/16 06:50:56;;;;;;;77.93;29.85;;;6.00;99.90;;;;;;5023402;28;20052;-90
2021/11/16 06:53:25;;;;;;;73.88;29.75;;;6.00;99.90;;;;;;5043893;28;20021;-91
2021/11/16 06:55:52;;;;;;;71.97;29.80;;;6.00;99.90;;;;;;5051110;28;20051;-91
2021/11/16 06:58:17;;;;;;;69.25;28.77;;;6.00;99.90;;;;;;5038166;28;20024;-91
2021/11/16 07:00:43;;;;;;;67.32;28.90;;;6.00;99.90;;;;;;5036086;28;20071;-91
2021/11/16 07:03:09;;;;;;;73.85;29.27;;;6.00;99.90;;;;;;5036493;28;20031;-90
2021/11/16 07:05:35;;;;;;;75.18;30.45;;;6.00;99.90;;;;;;5033592;28;20045;-91
2021/11/16 07:08:01;;;;;;;75.35;30.42;;;6.00;99.90;;;;;;5033313;28;20504;-90
2021/11/16 07:10:31;;;;;;;69.68;29.35;;;6.00;99.90;;;;;;5035163;28;20128;-91
2021/11/16 07:13:05;;;;;;;62.78;26.70;;;6.00;99.90;;;;;;5028269;28;20025;-91
2021/11/16 07:15:35;;;;;;;66.47;27.00;;;6.00;99.90;;;;;;5027205;28;20033;-91
2021/11/16 07:18:05;;;;;;;68.15;28.17;;;6.00;99.90;;;;;;5019831;28;20029;-91
2021/11/16 07:20:31;;;;;;;69.50;30.08;;;6.00;99.90;;;;;;5034909;28;20503;-90
2021/11/16 07:22:58;;;;;;;80.18;31.65;;;6.00;99.90;;;;;;5034454;28;20021;-92
2021/11/16 07:25:24;;;;;;;74.28;30.35;;;6.00;99.90;;;;;;5020337;28;20220;-91
2021/11/16 07:27:54;;;;;;;77.25;30.80;;;6.00;99.90;;;;;;5030608;28;20021;-92
2021/11/16 07:30:28;;;;;;;78.45;30.90;;;6.00;99.90;;;;;;5036310;28;20424;-91
2021/11/16 07:33:09;;;;;;;72.82;30.13;;;6.00;99.90;;;;;;5034111;28;20021;-91
2021/11/16 07:35:35;;;;;;;76.35;29.13;;;6.00;99.90;;;;;;5035779;28;20033;-92
2021/11/16 07:38:05;;;;;;;74.85;31.10;;;6.00;99.90;;;;;;5044717;28;20047;-92
2021/11/16 07:40:33;;;;;;;76.43;29.73;;;6.00;99.90;;;;;;5036612;28;20116;-93
2021/11/16 07:43:07;;;;;;;81.90;28.80;;;6.00;99.90;;;;;;5052475;28;20040;-93
2021/11/16 07:45:37;;;;;;;76.82;29.00;;;6.00;99.90;;;;;;5032010;28;20024;-92
2021/11/16 07:48:06;;;;;;;71.15;29.55;;;6.00;99.90;;;;;;5032266;28;20564;-92
2021/11/16 07:50:31;;;;;;;77.60;29.90;;;6.00;99.90;;;;;;5028216;28;20033;-92
2021/11/16 07:53:07;;;;;;;73.32;29.90;;;6.10;99.90;;;;;;5055077;28;20405;-93
2021/11/16 07:55:33;;;;;;;73.18;28.42;;;6.00;99.90;;;;;;5031941;28;20092;-93
2021/11/16 07:58:04;;;;;;;79.57;28.83;;;6.00;99.90;;;;;;5026882;28;20029;-93
2021/11/16 08:00:30;;;;;;;77.50;30.05;;;6.10;99.90;;;;;;5037679;28;20044;-94
2021/11/16 08:03:04;;;;;;;73.55;29.75;;;6.10;99.90;;;;;;5047926;28;20029;-92
2021/11/16 08:05:44;;;;;;;73.18;27.85;;;6.10;99.90;;;;;;5044490;28;20025;-92
2021/11/16 08:11:03;;;;;;;80.13;29.40;;;6.10;99.90;;;;;;5049368;28;20033;-92
2021/11/16 08:13:30;;;;;;;80.15;29.85;;;6.10;99.90;;;;;;5043843;28;20029;-92
2021/11/16 08:16:12;;;;;;;85.75;31.48;;;6.10;99.90;;;;;;5039074;28;20025;-92
2021/11/16 08:18:45;;;;;;;74.78;29.63;;;6.10;99.90;;;;;;5048600;28;20029;-93
2021/11/16 08:21:12;;;;;;;74.18;27.88;;;6.10;99.90;;;;;;5039621;28;20029;-92
2021/11/16 08:23:50;;;;;;;78.72;30.30;;;6.10;99.90;;;;;;5041862;28;20024;-91
2021/11/16 08:26:17;;;;;;;88.00;30.60;;;6.10;99.90;;;;;;5036763;28;20366;-93
2021/11/16 08:28:46;;;;;;;88.38;33.17;;;6.10;99.90;;;;;;5030209;28;20053;-92
2021/11/16 08:31:13;;;;;;;74.70;30.33;;;6.10;99.90;;;;;;5021210;28;20037;-92
2021/11/16 08:33:39;;;;;;;85.03;31.77;;;6.10;99.90;;;;;;5046275;28;20053;-92
2021/11/16 08:36:05;;;;;;;83.75;31.77;;;6.10;99.90;;;;;;5039057;28;20110;-91
2021/11/16 08:38:36;;;;;;;78.05;30.20;;;6.10;99.90;;;;;;5039924;28;20002;-90
2021/11/16 08:41:02;;;;;;;74.95;29.48;;;6.10;99.90;;;;;;5041636;28;20034;-91
2021/11/16 08:43:35;;;;;;;81.40;30.27;;;6.10;99.90;;;;;;5035645;28;20049;-92
2021/11/16 08:46:08;;;;;;;77.57;30.27;;;6.10;99.90;;;;;;5037699;28;20087;-91
2021/11/16 08:48:41;;;;;;;78.90;30.98;;;6.10;99.90;;;;;;5043752;28;20017;-89
2021/11/16 08:51:08;;;;;;;82.18;30.08;;;6.00;99.90;;;;;;5057160;28;20064;-92
2021/11/16 08:53:39;;;;;;;81.85;30.02;;;6.00;99.90;;;;;;5040877;28;20048;-93
2021/11/16 08:56:11;;;;;;;78.65;31.00;;;6.10;99.90;;;;;;5058322;28;20040;-93
2021/11/16 08:58:37;;;;;;;76.95;30.42;;;6.00;99.90;;;;;;5058658;28;20025;-90
2021/11/16 09:01:07;;;;;;;75.60;29.45;;;6.00;99.90;;;;;;5035552;28;20053;-91
2021/11/16 09:03:44;;;;;;;79.18;29.50;;;6.10;99.90;;;;;;5034431;28;20473;-90
2021/11/16 09:06:15;;;;;;;81.72;30.00;;;6.10;99.90;;;;;;5037023;28;20025;-90
2021/11/16 09:08:42;;;;;;;83.70;30.23;;;6.10;99.90;;;;;;5027771;28;20080;-92
2021/11/16 09:11:14;;;;;;;88.30;31.70;;;6.10;99.90;;;;;;5033615;28;20033;-89
2021/11/16 09:13:40;;;;;;;78.22;30.98;;;6.20;99.90;;;;;;5029809;28;20774;-89
2021/11/16 09:16:11;;;;;;;89.50;33.05;;;6.10;99.90;;;;;;5028846;28;20433;-92
2021/11/16 09:18:43;;;;;;;81.85;29.77;;;6.10;99.90;;;;;;5031773;28;20029;-90
2021/11/16 09:21:16;;;;;;;80.13;30.90;;;6.10;99.90;;;;;;5025048;28;20040;-91
2021/11/16 09:23:50;;;;;;;82.88;31.88;;;6.20;99.90;;;;;;5031984;28;20060;-90
2021/11/16 09:29:14;;;;;;;76.60;28.98;;;6.20;99.90;;;;;;5035968;28;20025;-95
2021/11/16 09:31:47;;;;;;;76.82;29.58;;;6.20;99.90;;;;;;5023897;28;20033;-93
2021/11/16 09:34:12;;;;;;;76.55;29.65;;;6.10;99.90;;;;;;5031652;28;20033;-92
2021/11/16 09:36:39;;;;;;;75.60;28.77;;;6.20;99.90;;;;;;5028434;28;20112;-92
2021/11/16 09:39:17;;;;;;;80.25;31.20;;;6.20;99.90;;;;;;5032089;28;20026;-93
2021/11/16 09:41:49;;;;;;;71.30;28.95;;;6.20;99.90;;;;;;5036455;28;20021;-91
2021/11/16 09:44:24;;;;;;;;;;;6.20;99.90;;;;;;5037441;28;20053;-91
2021/11/16 09:46:52;;;;;;;76.68;26.50;;;6.20;99.90;;;;;;5036991;28;19909;-92
2021/11/16 09:49:47;;;;;;;77.10;28.60;;;6.20;99.90;;;;;;5035406;28;20032;-91
2021/11/16 09:52:27;;;;;;;79.80;28.77;;;6.20;99.90;;;;;;5038724;28;20120;-91
2021/11/16 09:55:06;;;;;;;79.95;29.50;;;6.20;99.90;;;;;;5032386;28;20493;-92
2021/11/16 09:57:35;;;;;;;70.53;28.23;;;6.20;99.90;;;;;;5033874;28;20109;-91
2021/11/16 10:00:09;;;;;;;83.00;31.90;;;6.20;99.90;;;;;;5043073;28;20053;-92
2021/11/16 10:02:36;;;;;;;69.75;28.85;;;6.20;99.90;;;;;;5046812;28;20028;-91
2021/11/16 10:05:14;;;;;;;75.65;29.35;;;6.30;99.90;;;;;;5050026;28;20037;-92
2021/11/16 10:07:40;;;;;;;74.72;28.85;;;6.30;99.90;;;;;;5036230;28;20049;-91
2021/11/16 10:10:06;;;;;;;73.40;28.58;;;6.20;99.90;;;;;;5053148;28;20489;-91
2021/11/16 10:12:41;;;;;;;78.63;28.65;;;6.30;99.90;;;;;;5049770;28;20025;-92
2021/11/16 10:15:07;;;;;;;78.90;29.13;;;6.30;99.90;;;;;;5026045;28;20125;-92
2021/11/16 10:17:33;;;;;;;75.45;30.15;;;6.30;99.90;;;;;;5014698;28;20018;-91
2021/11/16 10:19:58;;;;;;;78.13;28.55;;;6.40;99.90;;;;;;5044884;28;20048;-93
2021/11/16 10:22:24;;;;;;;79.60;30.10;;;6.40;99.90;;;;;;5054918;28;20048;-91
2021/11/16 10:24:50;;;;;;;87.53;31.23;;;6.50;99.90;;;;;;5041901;28;20021;-91
2021/11/16 10:27:31;;;;;;;77.00;29.58;;;6.50;99.90;;;;;;5043969;28;20156;-92
2021/11/16 10:30:14;;;;;;;76.93;29.42;;;6.50;99.90;;;;;;5035910;28;20175;-92
2021/11/16 10:32:43;;;;;;;82.18;31.70;;;6.50;99.90;;;;;;5032362;28;20029;-93
2021/11/16 10:35:18;;;;;;;75.75;28.50;;;6.40;99.90;;;;;;5040554;28;20021;-93
2021/11/16 10:37:52;;;;;;;74.60;27.95;;;6.40;99.90;;;;;;5038110;28;20033;-93
2021/11/16 10:40:19;;;;;;;75.13;28.60;;;6.50;99.90;;;;;;5047757;28;20109;-92
2021/11/16 10:42:48;;;;;;;73.78;29.70;;;6.40;99.90;;;;;;5054002;28;20022;-93
2021/11/16 10:45:15;;;;;;;81.15;29.13;;;6.40;99.90;;;;;;5033495;28;20063;-94
2021/11/16 10:47:41;;;;;;;76.60;27.60;;;6.40;99.90;;;;;;5021813;28;20022;-94
2021/11/16 10:50:13;;;;;;;80.05;31.10;;;6.50;99.90;;;;;;5028052;28;20030;-93
2021/11/16 10:52:39;;;;;;;82.47;29.80;;;6.50;99.90;;;;;;5035435;28;20030;-94
2021/11/16 10:55:06;;;;;;;75.25;28.40;;;6.50;99.90;;;;;;5032243;28;20025;-94
2021/11/16 10:57:54;;;;;;;77.22;29.50;;;6.50;99.90;;;;;;5031312;28;20133;-93
2021/11/16 11:00:45;;;;;;;73.95;27.55;;;6.50;99.90;;;;;;5044232;28;20049;-94
2021/11/16 11:03:15;;;;;;;76.72;29.35;;;6.40;99.90;;;;;;5034028;28;20062;-94
2021/11/16 11:06:01;;;;;;;78.90;28.92;;;6.30;99.90;;;;;;5028180;28;20025;-93
2021/11/16 11:08:29;;;;;;;79.47;28.73;;;6.30;99.90;;;;;;5007665;28;20512;-94
2021/11/16 11:10:55;;;;;;;68.20;27.15;;;6.20;99.90;;;;;;5020701;28;20128;-94
2021/11/16 11:13:26;;;;;;;74.60;27.48;;;6.30;99.90;;;;;;5034089;28;20116;-91
2021/11/16 11:15:52;;;;;;;67.07;26.20;;;6.20;99.90;;;;;;5033713;28;20029;-93
2021/11/16 11:18:38;;;;;;;73.70;26.33;;;6.20;99.90;;;;;;5033670;28;20025;-92
2021/11/16 11:21:28;;;;;;;75.80;27.50;;;6.10;99.90;;;;;;5028741;28;20025;-91
2021/11/16 11:23:56;;;;;;;69.57;26.90;;;6.10;99.90;;;;;;5032373;28;20078;-88
2021/11/16 11:26:33;;;;;;;56.45;23.75;;;6.10;99.90;;;;;;5018557;28;20034;-88
2021/11/16 11:32:00;;;;;;;79.13;27.35;;;6.10;99.90;;;;;;5005195;28;20053;-88
2021/11/16 11:34:36;;;;;;;69.20;27.00;;;6.00;99.90;;;;;;5013773;28;20033;-88
2021/11/16 11:37:17;;;;;;;66.88;25.75;;;6.00;99.90;;;;;;5026358;28;20485;-88
2021/11/16 11:39:44;;;;;;;69.20;26.05;;;6.10;99.90;;;;;;5027953;28;20482;-88
2021/11/16 11:42:13;;;;;;;67.65;25.55;;;6.00;99.90;;;;;;5031591;28;20025;-88
2021/11/16 11:44:57;;;;;;;76.95;27.58;;;6.00;99.90;;;;;;5028285;28;20030;-89
2021/11/16 11:47:31;;;;;;;75.45;26.85;;;6.00;99.90;;;;;;5029814;28;20111;-88
2021/11/16 11:49:58;;;;;;;65.72;26.75;;;6.00;99.90;;;;;;5017788;28;20044;-88
2021/11/16 11:52:24;;;;;;;75.38;27.25;;;6.00;99.90;;;;;;5025584;28;20037;-89
2021/11/16 11:54:50;;;;;;;74.50;27.85;;;6.10;99.90;;;;;;5023525;28;20025;-90
2021/11/16 11:57:16;;;;;;;68.20;26.88;;;6.10;99.90;;;;;;5034771;28;20039;-90
2021/11/16 11:59:46;;;;;;;72.22;26.60;;;6.10;99.90;;;;;;5034186;28;20339;-90
2021/11/16 12:02:16;;;;;;;69.70;27.63;;;6.10;99.90;;;;;;5034094;28;20848;-90
2021/11/16 12:04:43;;;;;;;68.57;27.08;;;6.10;99.90;;;;;;5008225;28;20022;-89
2021/11/16 12:07:09;;;;;;;77.97;27.35;;;6.10;99.90;;;;;;5014703;28;20030;-89
2021/11/16 12:09:37;;;;;;;70.03;28.02;;;6.10;99.90;;;;;;5023228;28;20029;-91
2021/11/16 12:12:03;;;;;;;69.65;28.40;;;6.10;99.90;;;;;;5034799;28;20033;-88
2021/11/16 12:14:49;;;;;;;70.25;27.90;;;6.10;99.90;;;;;;5031565;28;20677;-89
2021/11/16 12:17:23;;;;;;;74.80;27.77;;;6.20;99.90;;;;;;5022228;28;20044;-88
2021/11/16 12:19:52;;;;;;;76.88;28.50;;;6.20;99.90;;;;;;5015624;28;20072;-87
2021/11/16 12:22:23;;;;;;;71.55;27.48;;;6.20;99.90;;;;;;5019200;28;20474;-86
2021/11/16 12:24:51;;;;;;;65.22;26.45;;;6.30;99.90;;;;;;5033417;28;20174;-87
2021/11/16 12:27:19;;;;;;;69.38;28.48;;;6.30;99.90;;;;;;5033956;28;20052;-87
2021/11/16 12:29:47;;;;;;;66.57;25.95;;;6.30;99.90;;;;;;5034307;28;20035;-87
2021/11/16 12:32:28;;;;;;;68.80;26.38;;;6.20;99.90;;;;;;5034100;28;20048;-87
2021/11/16 12:34:58;;;;;;;65.85;26.27;;;6.20;99.90;;;;;;5030914;28;20168;-87
2021/11/16 12:37:43;;;;;;;67.78;25.63;;;6.20;99.90;;;;;;5035309;28;20021;-86
2021/11/16 12:40:19;;;;;;;67.75;26.83;;;6.30;99.90;;;;;;5035294;28;20024;-87
2021/11/16 12:43:12;;;;;;;65.55;25.50;;;6.20;99.90;;;;;;5034073;28;20136;-87
2021/11/16 12:45:42;;;;;;;65.03;23.88;;;6.20;99.90;;;;;;5033432;28;20033;-88
2021/11/16 12:48:08;;;;;;;65.53;26.50;;;6.20;99.90;;;;;;5034253;28;20029;-87
2021/11/16 12:50:35;;;;;;;65.55;25.92;;;6.20;99.90;;;;;;5029625;28;20038;-87
2021/11/16 12:53:01;;;;;;;61.72;23.67;;;6.30;99.90;;;;;;5028514;28;20021;-87
2021/11/16 12:55:33;;;;;;;61.63;23.38;;;6.30;99.90;;;;;;5021557;28;20030;-87
2021/11/16 12:58:24;;;;;;;54.58;22.80;;;6.30;99.90;;;;;;5014472;28;20069;-89
2021/11/16 13:00:52;;;;;;;57.42;23.25;;;6.30;99.90;;;;;;5048205;28;20069;-89
2021/11/16 13:03:50;;;;;;;59.83;23.85;;;6.30;99.90;;;;;;5036242;28;20039;-88
2021/11/16 13:06:16;;;;;;;56.60;23.77;;;6.30;99.90;;;;;;4984833;28;20047;-89